sensor_id;sensor_type;location;lat;lon;timestamp;temperature;humidity
1680;DHT22;838;51.794;12.258;2023-04-29T00:01:34;12.50;66.20
1680;DHT22;838;51.794;12.258;2023-04-29T00:04:00;12.40;67.80
1680;DHT22;838;51.794;12.258;2023-04-29T00:06:26;12.40;70.30
1680;DHT22;838;51.794;12.258;2023-04-29T00:08:52;12.40;70.70
1680;DHT22;838;51.794;12.258;2023-04-29T00:11:18;12.60;70.40
1680;DHT22;838;51.794;12.258;2023-04-29T00:13:44;12.50;69.50
1680;DHT22;838;51.794;12.258;2023-04-29T00:16:09;12.60;69.10
1680;DHT22;838;51.794;12.258;2023-04-29T00:18:35;12.70;68.20
1680;DHT22;838;51.794;12.258;2023-04-29T00:21:02;12.80;67.10
1680;DHT22;838;51.794;12.258;2023-04-29T00:23:31;12.80;65.90
1680;DHT22;838;51.794;12.258;2023-04-29T00:25:57;12.70;66.50
1680;DHT22;838;51.794;12.258;2023-04-29T00:28:23;12.80;65.20
1680;DHT22;838;51.794;12.258;2023-04-29T00:30:48;12.80;64.00
1680;DHT22;838;51.794;12.258;2023-04-29T00:33:14;12.70;64.10
1680;DHT22;838;51.794;12.258;2023-04-29T00:35:40;12.80;63.50
1680;DHT22;838;51.794;12.258;2023-04-29T00:38:05;12.80;63.30
1680;DHT22;838;51.794;12.258;2023-04-29T00:40:31;13.00;63.70
1680;DHT22;838;51.794;12.258;2023-04-29T00:42:57;13.10;60.40
1680;DHT22;838;51.794;12.258;2023-04-29T00:45:23;13.20;60.50
1680;DHT22;838;51.794;12.258;2023-04-29T00:47:48;13.40;57.10
1680;DHT22;838;51.794;12.258;2023-04-29T00:50:14;13.50;56.50
1680;DHT22;838;51.794;12.258;2023-04-29T00:52:41;13.60;53.60
1680;DHT22;838;51.794;12.258;2023-04-29T00:55:07;13.60;54.80
1680;DHT22;838;51.794;12.258;2023-04-29T00:57:33;13.70;52.70
1680;DHT22;838;51.794;12.258;2023-04-29T01:00:00;13.90;50.70
1680;DHT22;838;51.794;12.258;2023-04-29T01:02:26;13.90;49.80
1680;DHT22;838;51.794;12.258;2023-04-29T01:04:52;14.10;47.70
1680;DHT22;838;51.794;12.258;2023-04-29T01:07:26;14.30;45.50
1680;DHT22;838;51.794;12.258;2023-04-29T01:12:40;14.40;42.00
1680;DHT22;838;51.794;12.258;2023-04-29T01:17:42;14.50;40.40
1680;DHT22;838;51.794;12.258;2023-04-29T01:20:09;14.60;39.50
1680;DHT22;838;51.794;12.258;2023-04-29T01:22:35;14.60;39.10
1680;DHT22;838;51.794;12.258;2023-04-29T01:25:01;14.60;38.60
1680;DHT22;838;51.794;12.258;2023-04-29T01:27:29;14.50;39.10
1680;DHT22;838;51.794;12.258;2023-04-29T01:38:41;14.30;41.90
1680;DHT22;838;51.794;12.258;2023-04-29T01:41:18;14.40;40.90
1680;DHT22;838;51.794;12.258;2023-04-29T01:43:50;14.30;40.40
1680;DHT22;838;51.794;12.258;2023-04-29T01:46:17;14.20;41.90
1680;DHT22;838;51.794;12.258;2023-04-29T01:48:44;14.10;43.30
1680;DHT22;838;51.794;12.258;2023-04-29T01:51:11;14.20;43.20
1680;DHT22;838;51.794;12.258;2023-04-29T01:53:36;14.40;41.70
1680;DHT22;838;51.794;12.258;2023-04-29T01:56:05;14.40;40.50
1680;DHT22;838;51.794;12.258;2023-04-29T01:58:31;14.30;39.10
1680;DHT22;838;51.794;12.258;2023-04-29T02:00:57;14.30;38.90
1680;DHT22;838;51.794;12.258;2023-04-29T02:05:49;14.10;41.00
1680;DHT22;838;51.794;12.258;2023-04-29T02:08:16;13.80;45.30
1680;DHT22;838;51.794;12.258;2023-04-29T02:10:51;13.80;44.50
1680;DHT22;838;51.794;12.258;2023-04-29T02:13:17;13.80;44.00
1680;DHT22;838;51.794;12.258;2023-04-29T02:15:43;13.80;45.00
1680;DHT22;838;51.794;12.258;2023-04-29T02:18:08;13.90;44.40
1680;DHT22;838;51.794;12.258;2023-04-29T02:20:34;13.90;44.40
1680;DHT22;838;51.794;12.258;2023-04-29T02:23:00;13.70;46.60
1680;DHT22;838;51.794;12.258;2023-04-29T02:25:26;13.50;46.00
1680;DHT22;838;51.794;12.258;2023-04-29T02:27:51;13.30;49.60
1680;DHT22;838;51.794;12.258;2023-04-29T02:30:17;13.30;50.30
1680;DHT22;838;51.794;12.258;2023-04-29T02:32:43;13.40;50.40
1680;DHT22;838;51.794;12.258;2023-04-29T02:35:08;13.40;47.70
1680;DHT22;838;51.794;12.258;2023-04-29T02:37:34;13.40;50.70
1680;DHT22;838;51.794;12.258;2023-04-29T02:40:00;13.30;49.50
1680;DHT22;838;51.794;12.258;2023-04-29T02:42:28;13.30;50.10
1680;DHT22;838;51.794;12.258;2023-04-29T02:44:54;13.40;49.00
1680;DHT22;838;51.794;12.258;2023-04-29T02:47:19;13.50;49.60
1680;DHT22;838;51.794;12.258;2023-04-29T02:49:46;13.50;47.50
1680;DHT22;838;51.794;12.258;2023-04-29T02:52:11;13.70;47.20
1680;DHT22;838;51.794;12.258;2023-04-29T02:54:38;13.60;46.10
1680;DHT22;838;51.794;12.258;2023-04-29T02:59:29;13.50;48.80
1680;DHT22;838;51.794;12.258;2023-04-29T03:04:22;13.40;49.70
1680;DHT22;838;51.794;12.258;2023-04-29T03:06:48;13.50;48.70
1680;DHT22;838;51.794;12.258;2023-04-29T03:09:14;13.70;48.30
1680;DHT22;838;51.794;12.258;2023-04-29T03:11:39;13.70;47.80
1680;DHT22;838;51.794;12.258;2023-04-29T03:14:05;13.70;46.60
1680;DHT22;838;51.794;12.258;2023-04-29T03:16:31;13.80;47.00
1680;DHT22;838;51.794;12.258;2023-04-29T03:18:57;13.80;46.30
1680;DHT22;838;51.794;12.258;2023-04-29T03:21:23;13.90;46.20
1680;DHT22;838;51.794;12.258;2023-04-29T03:23:52;13.80;46.10
1680;DHT22;838;51.794;12.258;2023-04-29T03:26:17;14.00;45.10
1680;DHT22;838;51.794;12.258;2023-04-29T03:28:43;13.80;43.30
1680;DHT22;838;51.794;12.258;2023-04-29T03:31:09;13.70;48.10
1680;DHT22;838;51.794;12.258;2023-04-29T03:33:37;13.60;47.80
1680;DHT22;838;51.794;12.258;2023-04-29T03:36:03;13.50;48.10
1680;DHT22;838;51.794;12.258;2023-04-29T03:38:29;13.40;51.00
1680;DHT22;838;51.794;12.258;2023-04-29T03:40:55;13.50;51.90
1680;DHT22;838;51.794;12.258;2023-04-29T03:43:27;13.40;50.00
1680;DHT22;838;51.794;12.258;2023-04-29T03:45:53;13.50;52.40
1680;DHT22;838;51.794;12.258;2023-04-29T03:48:19;13.50;53.70
1680;DHT22;838;51.794;12.258;2023-04-29T03:50:46;13.40;53.80
1680;DHT22;838;51.794;12.258;2023-04-29T03:53:17;13.40;54.80
1680;DHT22;838;51.794;12.258;2023-04-29T03:55:43;13.40;55.40
1680;DHT22;838;51.794;12.258;2023-04-29T03:58:09;13.50;55.70
1680;DHT22;838;51.794;12.258;2023-04-29T04:00:35;13.60;55.60
1680;DHT22;838;51.794;12.258;2023-04-29T04:03:00;13.80;52.50
1680;DHT22;838;51.794;12.258;2023-04-29T04:05:27;13.80;51.50
1680;DHT22;838;51.794;12.258;2023-04-29T04:07:53;13.60;52.80
1680;DHT22;838;51.794;12.258;2023-04-29T04:10:19;13.50;52.50
1680;DHT22;838;51.794;12.258;2023-04-29T04:12:45;13.40;55.10
1680;DHT22;838;51.794;12.258;2023-04-29T04:15:12;13.50;56.90
1680;DHT22;838;51.794;12.258;2023-04-29T04:17:38;13.50;55.50
1680;DHT22;838;51.794;12.258;2023-04-29T04:20:04;13.60;56.70
1680;DHT22;838;51.794;12.258;2023-04-29T04:22:30;13.60;55.30
1680;DHT22;838;51.794;12.258;2023-04-29T04:24:55;13.60;55.70
1680;DHT22;838;51.794;12.258;2023-04-29T04:27:21;13.50;56.50
1680;DHT22;838;51.794;12.258;2023-04-29T04:29:47;13.60;57.10
1680;DHT22;838;51.794;12.258;2023-04-29T04:32:13;13.50;57.70
1680;DHT22;838;51.794;12.258;2023-04-29T04:34:39;13.50;56.80
1680;DHT22;838;51.794;12.258;2023-04-29T04:37:05;13.60;56.80
1680;DHT22;838;51.794;12.258;2023-04-29T04:39:31;13.80;56.00
1680;DHT22;838;51.794;12.258;2023-04-29T04:41:57;13.90;54.20
1680;DHT22;838;51.794;12.258;2023-04-29T04:44:24;13.90;53.70
1680;DHT22;838;51.794;12.258;2023-04-29T04:49:19;14.20;50.40
1680;DHT22;838;51.794;12.258;2023-04-29T04:51:45;14.10;48.50
1680;DHT22;838;51.794;12.258;2023-04-29T04:54:11;14.00;51.00
1680;DHT22;838;51.794;12.258;2023-04-29T04:56:38;13.90;51.20
1680;DHT22;838;51.794;12.258;2023-04-29T04:59:04;13.30;56.40
1680;DHT22;838;51.794;12.258;2023-04-29T05:01:30;13.30;56.50
1680;DHT22;838;51.794;12.258;2023-04-29T05:04:02;13.20;60.30
1680;DHT22;838;51.794;12.258;2023-04-29T05:06:34;13.10;59.70
1680;DHT22;838;51.794;12.258;2023-04-29T05:11:30;13.20;60.20
1680;DHT22;838;51.794;12.258;2023-04-29T05:31:14;13.60;57.60
1680;DHT22;838;51.794;12.258;2023-04-29T05:33:45;13.60;56.60
1680;DHT22;838;51.794;12.258;2023-04-29T05:36:11;13.70;55.80
1680;DHT22;838;51.794;12.258;2023-04-29T05:43:29;13.60;56.00
1680;DHT22;838;51.794;12.258;2023-04-29T05:45:55;13.50;57.40
1680;DHT22;838;51.794;12.258;2023-04-29T05:50:47;13.50;58.40
1680;DHT22;838;51.794;12.258;2023-04-29T05:55:39;13.60;58.40
1680;DHT22;838;51.794;12.258;2023-04-29T06:05:35;13.80;55.50
1680;DHT22;838;51.794;12.258;2023-04-29T06:10:29;13.90;53.70
1680;DHT22;838;51.794;12.258;2023-04-29T06:12:55;13.80;53.10
1680;DHT22;838;51.794;12.258;2023-04-29T06:15:23;13.80;54.20
1680;DHT22;838;51.794;12.258;2023-04-29T06:17:49;13.90;53.80
1680;DHT22;838;51.794;12.258;2023-04-29T06:20:14;13.90;53.80
1680;DHT22;838;51.794;12.258;2023-04-29T06:25:09;13.80;53.70
1680;DHT22;838;51.794;12.258;2023-04-29T06:27:35;13.60;55.10
1680;DHT22;838;51.794;12.258;2023-04-29T06:32:27;13.40;57.10
1680;DHT22;838;51.794;12.258;2023-04-29T06:34:52;13.50;58.20
1680;DHT22;838;51.794;12.258;2023-04-29T06:37:18;13.70;56.00
1680;DHT22;838;51.794;12.258;2023-04-29T06:39:44;13.80;55.00
1680;DHT22;838;51.794;12.258;2023-04-29T06:42:10;13.70;54.40
1680;DHT22;838;51.794;12.258;2023-04-29T06:44:35;13.60;55.30
1680;DHT22;838;51.794;12.258;2023-04-29T06:47:01;13.60;55.40
1680;DHT22;838;51.794;12.258;2023-04-29T06:49:27;13.50;55.10
1680;DHT22;838;51.794;12.258;2023-04-29T06:54:19;13.30;57.00
1680;DHT22;838;51.794;12.258;2023-04-29T06:56:45;13.30;56.50
1680;DHT22;838;51.794;12.258;2023-04-29T06:59:12;13.20;55.90
1680;DHT22;838;51.794;12.258;2023-04-29T07:01:40;13.20;53.90
1680;DHT22;838;51.794;12.258;2023-04-29T07:06:32;13.40;54.00
1680;DHT22;838;51.794;12.258;2023-04-29T07:09:01;13.50;47.80
1680;DHT22;838;51.794;12.258;2023-04-29T07:21:19;13.20;43.70
1680;DHT22;838;51.794;12.258;2023-04-29T07:23:44;13.30;46.70
1680;DHT22;838;51.794;12.258;2023-04-29T07:26:12;13.40;43.90
1680;DHT22;838;51.794;12.258;2023-04-29T07:28:38;13.30;44.70
1680;DHT22;838;51.794;12.258;2023-04-29T07:36:04;13.20;45.00
1680;DHT22;838;51.794;12.258;2023-04-29T07:38:34;13.40;45.00
1680;DHT22;838;51.794;12.258;2023-04-29T07:41:05;13.30;42.50
1680;DHT22;838;51.794;12.258;2023-04-29T07:45:57;13.10;44.00
1680;DHT22;838;51.794;12.258;2023-04-29T07:48:23;13.10;45.30
1680;DHT22;838;51.794;12.258;2023-04-29T07:53:15;12.90;46.60
1680;DHT22;838;51.794;12.258;2023-04-29T07:55:42;12.90;45.80
1680;DHT22;838;51.794;12.258;2023-04-29T07:58:08;13.00;46.40
1680;DHT22;838;51.794;12.258;2023-04-29T08:05:29;13.10;43.90
1680;DHT22;838;51.794;12.258;2023-04-29T08:10:24;13.00;43.00
1680;DHT22;838;51.794;12.258;2023-04-29T08:12:51;12.90;44.70
1680;DHT22;838;51.794;12.258;2023-04-29T08:15:17;12.80;45.30
1680;DHT22;838;51.794;12.258;2023-04-29T08:17:43;12.70;46.10
1680;DHT22;838;51.794;12.258;2023-04-29T08:20:09;12.70;46.40
1680;DHT22;838;51.794;12.258;2023-04-29T08:22:35;12.70;47.00
1680;DHT22;838;51.794;12.258;2023-04-29T08:27:27;13.00;45.60
1680;DHT22;838;51.794;12.258;2023-04-29T08:29:56;13.10;44.90
1680;DHT22;838;51.794;12.258;2023-04-29T08:32:22;13.10;44.20
1680;DHT22;838;51.794;12.258;2023-04-29T08:37:21;12.70;42.60
1680;DHT22;838;51.794;12.258;2023-04-29T08:42:16;12.00;47.20
1680;DHT22;838;51.794;12.258;2023-04-29T08:44:55;11.90;49.70
1680;DHT22;838;51.794;12.258;2023-04-29T08:50:01;11.60;51.30
1680;DHT22;838;51.794;12.258;2023-04-29T08:52:31;11.70;52.70
1680;DHT22;838;51.794;12.258;2023-04-29T08:55:03;11.60;52.50
1680;DHT22;838;51.794;12.258;2023-04-29T08:57:31;11.60;51.50
1680;DHT22;838;51.794;12.258;2023-04-29T09:00:07;11.70;52.40
1680;DHT22;838;51.794;12.258;2023-04-29T09:10:07;11.60;49.90
1680;DHT22;838;51.794;12.258;2023-04-29T09:17:46;11.60;52.00
1680;DHT22;838;51.794;12.258;2023-04-29T09:20:32;11.50;51.10
1680;DHT22;838;51.794;12.258;2023-04-29T09:23:02;11.40;53.10
1680;DHT22;838;51.794;12.258;2023-04-29T09:30:45;11.50;54.00
1680;DHT22;838;51.794;12.258;2023-04-29T09:33:11;11.40;53.40
1680;DHT22;838;51.794;12.258;2023-04-29T09:35:43;11.40;54.80
1680;DHT22;838;51.794;12.258;2023-04-29T09:38:11;11.30;55.50
1680;DHT22;838;51.794;12.258;2023-04-29T09:40:38;11.20;55.90
1680;DHT22;838;51.794;12.258;2023-04-29T09:43:17;11.20;58.00
1680;DHT22;838;51.794;12.258;2023-04-29T09:45:49;11.10;57.50
1680;DHT22;838;51.794;12.258;2023-04-29T09:55:57;11.20;57.80
1680;DHT22;838;51.794;12.258;2023-04-29T10:01:08;11.20;57.10
1680;DHT22;838;51.794;12.258;2023-04-29T10:03:36;11.40;57.00
1680;DHT22;838;51.794;12.258;2023-04-29T10:06:04;11.40;57.10
1680;DHT22;838;51.794;12.258;2023-04-29T10:21:07;11.30;54.90
1680;DHT22;838;51.794;12.258;2023-04-29T10:23:34;11.50;53.60
1680;DHT22;838;51.794;12.258;2023-04-29T10:31:03;11.70;49.00
1680;DHT22;838;51.794;12.258;2023-04-29T10:33:32;11.60;51.10
1680;DHT22;838;51.794;12.258;2023-04-29T10:36:00;11.60;50.80
1680;DHT22;838;51.794;12.258;2023-04-29T10:43:29;11.80;47.90
1680;DHT22;838;51.794;12.258;2023-04-29T10:46:19;12.00;48.90
1680;DHT22;838;51.794;12.258;2023-04-29T10:48:48;12.00;44.40
1680;DHT22;838;51.794;12.258;2023-04-29T10:56:36;12.10;45.10
1680;DHT22;838;51.794;12.258;2023-04-29T11:01:51;12.60;40.20
1680;DHT22;838;51.794;12.258;2023-04-29T11:04:21;12.90;36.40
1680;DHT22;838;51.794;12.258;2023-04-29T11:06:57;13.30;34.70
1680;DHT22;838;51.794;12.258;2023-04-29T11:09:29;13.20;32.90
1680;DHT22;838;51.794;12.258;2023-04-29T11:12:02;13.20;32.50
1680;DHT22;838;51.794;12.258;2023-04-29T11:14:48;13.10;31.60
1680;DHT22;838;51.794;12.258;2023-04-29T11:17:16;13.10;31.70
1680;DHT22;838;51.794;12.258;2023-04-29T11:19:52;13.10;32.60
1680;DHT22;838;51.794;12.258;2023-04-29T11:22:27;13.10;32.60
1680;DHT22;838;51.794;12.258;2023-04-29T11:25:01;13.00;32.30
1680;DHT22;838;51.794;12.258;2023-04-29T11:27:34;13.30;31.90
1680;DHT22;838;51.794;12.258;2023-04-29T11:30:02;13.20;31.70
1680;DHT22;838;51.794;12.258;2023-04-29T11:32:32;13.10;30.20
1680;DHT22;838;51.794;12.258;2023-04-29T11:35:12;13.10;30.20
1680;DHT22;838;51.794;12.258;2023-04-29T11:37:40;13.00;30.40
1680;DHT22;838;51.794;12.258;2023-04-29T11:40:06;13.00;31.70
1680;DHT22;838;51.794;12.258;2023-04-29T11:42:43;13.10;30.80
1680;DHT22;838;51.794;12.258;2023-04-29T11:45:10;13.20;30.70
1680;DHT22;838;51.794;12.258;2023-04-29T11:47:36;13.00;29.80
1680;DHT22;838;51.794;12.258;2023-04-29T11:50:07;13.00;29.80
1680;DHT22;838;51.794;12.258;2023-04-29T11:52:35;13.00;30.20
1680;DHT22;838;51.794;12.258;2023-04-29T12:02:33;13.50;24.90
1680;DHT22;838;51.794;12.258;2023-04-29T12:05:04;13.80;24.60
1680;DHT22;838;51.794;12.258;2023-04-29T12:07:30;13.90;24.70
1680;DHT22;838;51.794;12.258;2023-04-29T12:09:56;14.00;23.50
1680;DHT22;838;51.794;12.258;2023-04-29T12:12:23;14.10;23.50
1680;DHT22;838;51.794;12.258;2023-04-29T12:14:50;14.10;24.10
1680;DHT22;838;51.794;12.258;2023-04-29T12:17:19;14.20;23.40
1680;DHT22;838;51.794;12.258;2023-04-29T12:22:13;13.80;24.80
1680;DHT22;838;51.794;12.258;2023-04-29T12:24:39;13.90;24.80
1680;DHT22;838;51.794;12.258;2023-04-29T12:27:09;13.80;25.60
1680;DHT22;838;51.794;12.258;2023-04-29T12:29:36;14.00;24.90
1680;DHT22;838;51.794;12.258;2023-04-29T12:32:02;14.20;24.90
1680;DHT22;838;51.794;12.258;2023-04-29T12:34:30;14.40;24.10
1680;DHT22;838;51.794;12.258;2023-04-29T12:36:58;14.40;22.60
1680;DHT22;838;51.794;12.258;2023-04-29T12:41:56;14.50;22.10
1680;DHT22;838;51.794;12.258;2023-04-29T12:51:51;14.90;18.20
1680;DHT22;838;51.794;12.258;2023-04-29T12:59:15;15.30;14.40
1680;DHT22;838;51.794;12.258;2023-04-29T13:06:42;15.00;16.20
1680;DHT22;838;51.794;12.258;2023-04-29T13:09:07;14.90;14.80
1680;DHT22;838;51.794;12.258;2023-04-29T13:19:02;15.60;12.80
1680;DHT22;838;51.794;12.258;2023-04-29T13:21:32;15.40;11.60
1680;DHT22;838;51.794;12.258;2023-04-29T13:24:03;15.60;10.40
1680;DHT22;838;51.794;12.258;2023-04-29T13:26:29;15.50;11.20
1680;DHT22;838;51.794;12.258;2023-04-29T13:31:21;15.20;12.70
1680;DHT22;838;51.794;12.258;2023-04-29T13:33:53;15.40;12.50
1680;DHT22;838;51.794;12.258;2023-04-29T13:41:20;16.30;8.70
1680;DHT22;838;51.794;12.258;2023-04-29T13:43:47;16.20;7.90
1680;DHT22;838;51.794;12.258;2023-04-29T13:46:13;16.20;8.90
1680;DHT22;838;51.794;12.258;2023-04-29T13:48:51;15.70;9.40
1680;DHT22;838;51.794;12.258;2023-04-29T13:53:46;15.50;10.30
1680;DHT22;838;51.794;12.258;2023-04-29T13:56:16;15.30;11.70
1680;DHT22;838;51.794;12.258;2023-04-29T14:01:13;14.90;12.60
1680;DHT22;838;51.794;12.258;2023-04-29T14:03:38;14.80;14.00
1680;DHT22;838;51.794;12.258;2023-04-29T14:06:07;14.90;14.20
1680;DHT22;838;51.794;12.258;2023-04-29T14:08:33;15.00;13.70
1680;DHT22;838;51.794;12.258;2023-04-29T14:15:54;15.10;11.50
1680;DHT22;838;51.794;12.258;2023-04-29T14:18:21;15.20;11.60
1680;DHT22;838;51.794;12.258;2023-04-29T14:20:48;15.30;11.20
1680;DHT22;838;51.794;12.258;2023-04-29T14:23:14;15.40;9.80
1680;DHT22;838;51.794;12.258;2023-04-29T14:25:42;15.50;9.40
1680;DHT22;838;51.794;12.258;2023-04-29T14:28:08;15.60;8.60
1680;DHT22;838;51.794;12.258;2023-04-29T14:30:34;15.40;6.80
1680;DHT22;838;51.794;12.258;2023-04-29T14:35:30;15.40;7.90
1680;DHT22;838;51.794;12.258;2023-04-29T14:37:57;15.60;5.80
1680;DHT22;838;51.794;12.258;2023-04-29T14:45:48;15.60;2.90
1680;DHT22;838;51.794;12.258;2023-04-29T14:48:14;15.70;2.00
1680;DHT22;838;51.794;12.258;2023-04-29T14:58:03;16.20;1.50
1680;DHT22;838;51.794;12.258;2023-04-29T15:07:49;16.00;2.70
1680;DHT22;838;51.794;12.258;2023-04-29T15:10:16;16.00;2.90
1680;DHT22;838;51.794;12.258;2023-04-29T15:17:39;16.00;3.60
1680;DHT22;838;51.794;12.258;2023-04-29T15:24:58;15.30;3.90
1680;DHT22;838;51.794;12.258;2023-04-29T15:27:25;15.30;4.90
1680;DHT22;838;51.794;12.258;2023-04-29T15:34:49;15.60;4.90
1680;DHT22;838;51.794;12.258;2023-04-29T15:37:15;15.60;4.20
1680;DHT22;838;51.794;12.258;2023-04-29T15:39:42;15.70;4.90
1680;DHT22;838;51.794;12.258;2023-04-29T15:49:26;15.60;5.00
1680;DHT22;838;51.794;12.258;2023-04-29T15:51:52;15.70;4.50
1680;DHT22;838;51.794;12.258;2023-04-29T15:56:44;15.80;3.90
1680;DHT22;838;51.794;12.258;2023-04-29T16:01:36;15.80;3.60
1680;DHT22;838;51.794;12.258;2023-04-29T16:04:02;15.90;3.70
1680;DHT22;838;51.794;12.258;2023-04-29T16:06:30;16.00;3.90
1680;DHT22;838;51.794;12.258;2023-04-29T16:09:02;16.10;3.70
1680;DHT22;838;51.794;12.258;2023-04-29T16:11:31;16.20;2.10
1680;DHT22;838;51.794;12.258;2023-04-29T16:13:57;16.50;1.50
1680;DHT22;838;51.794;12.258;2023-04-29T16:16:23;16.60;1.00
1680;DHT22;838;51.794;12.258;2023-04-29T16:18:50;16.60;1.00
1680;DHT22;838;51.794;12.258;2023-04-29T16:21:19;16.60;1.50
1680;DHT22;838;51.794;12.258;2023-04-29T16:23:45;16.80;1.00
1680;DHT22;838;51.794;12.258;2023-04-29T16:26:11;16.80;1.40
1680;DHT22;838;51.794;12.258;2023-04-29T16:28:37;16.80;1.00
1680;DHT22;838;51.794;12.258;2023-04-29T16:31:02;16.50;1.00
1680;DHT22;838;51.794;12.258;2023-04-29T16:33:28;16.20;1.00
1680;DHT22;838;51.794;12.258;2023-04-29T16:35:55;16.20;1.00
1680;DHT22;838;51.794;12.258;2023-04-29T16:38:23;16.20;1.00
1680;DHT22;838;51.794;12.258;2023-04-29T16:40:49;16.20;1.00
1680;DHT22;838;51.794;12.258;2023-04-29T16:43:15;16.30;1.00
1680;DHT22;838;51.794;12.258;2023-04-29T16:45:40;16.50;1.00
1680;DHT22;838;51.794;12.258;2023-04-29T16:48:06;16.50;1.00
1680;DHT22;838;51.794;12.258;2023-04-29T16:50:33;16.40;1.00
1680;DHT22;838;51.794;12.258;2023-04-29T16:53:05;16.10;1.00
1680;DHT22;838;51.794;12.258;2023-04-29T16:55:30;15.90;1.00
1680;DHT22;838;51.794;12.258;2023-04-29T16:57:56;15.90;1.00
1680;DHT22;838;51.794;12.258;2023-04-29T17:00:22;15.90;1.00
1680;DHT22;838;51.794;12.258;2023-04-29T17:02:48;16.00;1.00
1680;DHT22;838;51.794;12.258;2023-04-29T17:05:15;16.10;1.00
1680;DHT22;838;51.794;12.258;2023-04-29T17:07:43;16.20;1.00
1680;DHT22;838;51.794;12.258;2023-04-29T17:10:09;16.00;1.00
1680;DHT22;838;51.794;12.258;2023-04-29T17:12:36;15.90;1.00
1680;DHT22;838;51.794;12.258;2023-04-29T17:15:02;15.80;1.00
1680;DHT22;838;51.794;12.258;2023-04-29T17:17:29;15.80;1.00
1680;DHT22;838;51.794;12.258;2023-04-29T17:19:54;15.80;1.00
1680;DHT22;838;51.794;12.258;2023-04-29T17:22:20;15.90;1.00
1680;DHT22;838;51.794;12.258;2023-04-29T17:24:46;16.00;1.00
1680;DHT22;838;51.794;12.258;2023-04-29T17:27:13;16.20;1.00
1680;DHT22;838;51.794;12.258;2023-04-29T17:29:39;16.10;1.00
1680;DHT22;838;51.794;12.258;2023-04-29T17:32:05;16.20;1.00
1680;DHT22;838;51.794;12.258;2023-04-29T17:34:36;16.20;1.00
1680;DHT22;838;51.794;12.258;2023-04-29T17:37:03;16.20;1.00
1680;DHT22;838;51.794;12.258;2023-04-29T17:39:29;16.30;1.00
1680;DHT22;838;51.794;12.258;2023-04-29T17:41:55;16.30;1.00
1680;DHT22;838;51.794;12.258;2023-04-29T17:44:21;16.30;1.00
1680;DHT22;838;51.794;12.258;2023-04-29T17:46:47;16.20;1.00
1680;DHT22;838;51.794;12.258;2023-04-29T17:49:13;16.00;1.00
1680;DHT22;838;51.794;12.258;2023-04-29T17:51:39;15.90;1.00
1680;DHT22;838;51.794;12.258;2023-04-29T17:54:06;15.80;1.70
1680;DHT22;838;51.794;12.258;2023-04-29T17:56:32;15.90;1.50
1680;DHT22;838;51.794;12.258;2023-04-29T17:59:00;15.90;1.80
1680;DHT22;838;51.794;12.258;2023-04-29T18:01:26;16.00;1.80
1680;DHT22;838;51.794;12.258;2023-04-29T18:03:52;16.20;1.70
1680;DHT22;838;51.794;12.258;2023-04-29T18:06:18;16.30;1.50
1680;DHT22;838;51.794;12.258;2023-04-29T18:08:44;16.20;1.50
1680;DHT22;838;51.794;12.258;2023-04-29T18:11:10;16.10;2.10
1680;DHT22;838;51.794;12.258;2023-04-29T18:13:40;15.80;3.40
1680;DHT22;838;51.794;12.258;2023-04-29T18:16:06;15.80;3.50
1680;DHT22;838;51.794;12.258;2023-04-29T18:18:33;15.70;4.10
1680;DHT22;838;51.794;12.258;2023-04-29T18:20:59;15.60;4.20
1680;DHT22;838;51.794;12.258;2023-04-29T18:23:24;15.60;4.60
1680;DHT22;838;51.794;12.258;2023-04-29T18:25:51;15.60;4.70
1680;DHT22;838;51.794;12.258;2023-04-29T18:28:17;15.50;5.20
1680;DHT22;838;51.794;12.258;2023-04-29T18:30:44;15.40;5.70
1680;DHT22;838;51.794;12.258;2023-04-29T18:33:10;15.40;5.90
1680;DHT22;838;51.794;12.258;2023-04-29T18:35:36;15.40;6.10
1680;DHT22;838;51.794;12.258;2023-04-29T18:38:02;15.40;6.30
1680;DHT22;838;51.794;12.258;2023-04-29T18:40:28;15.40;6.20
1680;DHT22;838;51.794;12.258;2023-04-29T18:42:53;15.40;6.70
1680;DHT22;838;51.794;12.258;2023-04-29T18:45:19;15.40;6.60
1680;DHT22;838;51.794;12.258;2023-04-29T18:47:45;15.30;6.60
1680;DHT22;838;51.794;12.258;2023-04-29T18:50:11;15.20;7.30
1680;DHT22;838;51.794;12.258;2023-04-29T18:52:36;15.10;8.00
1680;DHT22;838;51.794;12.258;2023-04-29T18:55:03;15.10;8.20
1680;DHT22;838;51.794;12.258;2023-04-29T18:57:29;15.10;7.90
1680;DHT22;838;51.794;12.258;2023-04-29T18:59:55;15.00;8.00
1680;DHT22;838;51.794;12.258;2023-04-29T19:02:21;15.00;8.10
1680;DHT22;838;51.794;12.258;2023-04-29T19:04:47;15.00;7.20
1680;DHT22;838;51.794;12.258;2023-04-29T19:07:13;15.00;7.10
1680;DHT22;838;51.794;12.258;2023-04-29T19:09:38;14.90;7.10
1680;DHT22;838;51.794;12.258;2023-04-29T19:12:04;14.90;7.20
1680;DHT22;838;51.794;12.258;2023-04-29T19:14:31;14.80;6.10
1680;DHT22;838;51.794;12.258;2023-04-29T19:16:58;14.80;6.40
1680;DHT22;838;51.794;12.258;2023-04-29T19:19:24;14.90;6.60
1680;DHT22;838;51.794;12.258;2023-04-29T19:21:50;14.90;6.20
1680;DHT22;838;51.794;12.258;2023-04-29T19:24:16;14.90;6.60
1680;DHT22;838;51.794;12.258;2023-04-29T19:26:42;14.80;5.90
1680;DHT22;838;51.794;12.258;2023-04-29T19:29:08;14.80;6.30
1680;DHT22;838;51.794;12.258;2023-04-29T19:31:33;14.90;5.70
1680;DHT22;838;51.794;12.258;2023-04-29T19:33:59;14.80;5.50
1680;DHT22;838;51.794;12.258;2023-04-29T19:36:25;14.70;4.40
1680;DHT22;838;51.794;12.258;2023-04-29T19:38:51;14.70;4.90
1680;DHT22;838;51.794;12.258;2023-04-29T19:41:17;14.70;4.60
1680;DHT22;838;51.794;12.258;2023-04-29T19:43:42;14.70;4.60
1680;DHT22;838;51.794;12.258;2023-04-29T19:46:11;14.80;4.20
1680;DHT22;838;51.794;12.258;2023-04-29T19:48:37;14.90;3.50
1680;DHT22;838;51.794;12.258;2023-04-29T19:51:05;15.00;3.60
1680;DHT22;838;51.794;12.258;2023-04-29T19:53:31;15.10;2.60
1680;DHT22;838;51.794;12.258;2023-04-29T19:55:57;15.10;2.90
1680;DHT22;838;51.794;12.258;2023-04-29T19:58:23;15.20;2.70
1680;DHT22;838;51.794;12.258;2023-04-29T20:00:49;15.40;2.40
1680;DHT22;838;51.794;12.258;2023-04-29T20:03:15;15.60;1.90
1680;DHT22;838;51.794;12.258;2023-04-29T20:05:41;15.40;2.30
1680;DHT22;838;51.794;12.258;2023-04-29T20:08:09;15.40;3.40
1680;DHT22;838;51.794;12.258;2023-04-29T20:10:35;15.40;3.30
1680;DHT22;838;51.794;12.258;2023-04-29T20:13:01;15.30;4.10
1680;DHT22;838;51.794;12.258;2023-04-29T20:15:27;15.20;4.20
1680;DHT22;838;51.794;12.258;2023-04-29T20:17:53;15.20;4.30
1680;DHT22;838;51.794;12.258;2023-04-29T20:20:19;15.20;4.40
1680;DHT22;838;51.794;12.258;2023-04-29T20:22:44;15.20;4.10
1680;DHT22;838;51.794;12.258;2023-04-29T20:25:10;15.00;4.60
1680;DHT22;838;51.794;12.258;2023-04-29T20:27:36;14.90;5.00
1680;DHT22;838;51.794;12.258;2023-04-29T20:30:02;14.90;4.80
1680;DHT22;838;51.794;12.258;2023-04-29T20:32:28;14.90;5.00
1680;DHT22;838;51.794;12.258;2023-04-29T20:34:55;14.70;5.00
1680;DHT22;838;51.794;12.258;2023-04-29T20:37:21;14.60;5.40
1680;DHT22;838;51.794;12.258;2023-04-29T20:39:46;14.30;6.50